createdAt,value
2018-02-21T09:36:55.017Z,4760.00
2018-02-21T09:45:23.628Z,7356.00
2018-02-21T09:46:24.114Z,9804.00
2018-02-21T09:47:23.608Z,17568.00
2018-02-21T09:48:23.425Z,14464.00
2018-02-21T09:49:23.793Z,7652.00
2018-02-21T09:50:23.777Z,5824.00
2018-02-21T09:51:23.259Z,5320.00
2018-02-21T09:52:23.240Z,5124.00
2018-02-21T09:53:23.236Z,4820.00
2018-02-21T09:54:23.218Z,4516.00
2018-02-21T09:55:23.324Z,4412.00
2018-02-21T09:56:23.233Z,4404.00
2018-02-21T09:57:23.160Z,4424.00
2018-02-21T09:58:23.165Z,4464.00
2018-02-21T09:59:23.156Z,4484.00
2018-02-21T10:00:23.157Z,4516.00
2018-02-21T10:01:26.191Z,4612.00
2018-02-21T10:02:23.173Z,4580.00
2018-02-21T10:03:23.056Z,4560.00
2018-02-21T10:04:23.071Z,4568.00
2018-02-21T10:05:23.020Z,4556.00
2018-02-21T10:06:23.083Z,4632.00
2018-02-21T10:07:23.045Z,4672.00
2018-02-21T10:08:22.959Z,4700.00
2018-02-21T10:09:22.945Z,4680.00
2018-02-21T10:10:22.926Z,4684.00
2018-02-21T10:11:22.905Z,4772.00
2018-02-21T10:12:23.793Z,4908.00
2018-02-21T10:13:23.540Z,4924.00
2018-02-21T10:14:24.947Z,5048.00
2018-02-21T10:15:22.955Z,5284.00
2018-02-21T10:16:22.812Z,5376.00
2018-02-21T10:17:22.796Z,5224.00
2018-02-21T10:18:22.849Z,5048.00
2018-02-21T10:19:22.774Z,4996.00
2018-02-21T10:20:23.110Z,5124.00
2018-02-21T10:21:22.739Z,5208.00
2018-02-21T10:22:22.698Z,5208.00
2018-02-21T10:23:22.875Z,5144.00
2018-02-21T10:24:22.675Z,5256.00
2018-02-21T10:25:22.657Z,5436.00
2018-02-21T10:26:22.694Z,5528.00
2018-02-21T10:27:22.619Z,5528.00
2018-02-21T10:28:22.598Z,5432.00
2018-02-21T10:29:22.657Z,5364.00
2018-02-21T10:30:22.820Z,5604.00
2018-02-21T10:31:22.541Z,5816.00
2018-02-21T10:32:22.541Z,6028.00
2018-02-21T10:33:22.528Z,5928.00
2018-02-21T10:34:22.513Z,5904.00
2018-02-21T10:35:22.505Z,6236.00
2018-02-21T10:36:22.482Z,6368.00
2018-02-21T10:37:22.457Z,6304.00
2018-02-21T10:38:22.457Z,5648.00
2018-02-21T10:39:22.481Z,5792.00
2018-02-21T10:40:22.493Z,6524.00
2018-02-21T10:41:22.540Z,6468.00
2018-02-21T10:42:23.013Z,6476.00
2018-02-21T10:43:22.358Z,6316.00
2018-02-21T10:44:23.353Z,6600.00
2018-02-21T10:45:22.332Z,6980.00
2018-02-21T10:46:22.380Z,6860.00
2018-02-21T10:47:22.314Z,7856.00
2018-02-21T10:48:22.300Z,8332.00
2018-02-21T10:49:22.683Z,7960.00
2018-02-21T10:50:22.244Z,6636.00
2018-02-21T10:51:22.221Z,5664.00
2018-02-21T10:52:22.206Z,5536.00
2018-02-21T10:53:22.194Z,5772.00
2018-02-21T10:54:22.179Z,6252.00
2018-02-21T10:55:22.223Z,5944.00
2018-02-21T10:56:22.132Z,5696.00
2018-02-21T10:57:22.120Z,5668.00
2018-02-21T10:58:22.108Z,5760.00
2018-02-21T10:59:22.084Z,8152.00
2018-02-21T11:00:22.135Z,11156.00
2018-02-21T11:01:22.070Z,11700.00
2018-02-21T11:02:22.049Z,13212.00
2018-02-21T11:03:22.023Z,16768.00
2018-02-21T11:04:22.004Z,20160.00
2018-02-21T11:05:21.991Z,19744.00
2018-02-21T11:06:22.019Z,19680.00
2018-02-21T11:07:21.952Z,21792.00
2018-02-21T11:08:21.956Z,19872.00
2018-02-21T11:09:22.007Z,17440.00
2018-02-21T11:10:22.496Z,13584.00
2018-02-21T11:11:21.952Z,7536.00
2018-02-21T11:12:21.881Z,5980.00
2018-02-21T11:13:21.861Z,6024.00
2018-02-21T11:14:22.930Z,6040.00
2018-02-21T11:15:22.173Z,8960.00
2018-02-21T11:16:21.831Z,14528.00
2018-02-21T11:17:21.824Z,16512.00
2018-02-21T11:18:21.793Z,15968.00
2018-02-21T11:19:21.800Z,8696.00
2018-02-21T11:20:21.813Z,6324.00
2018-02-21T11:21:21.755Z,6372.00
2018-02-21T11:22:21.799Z,6888.00
2018-02-21T11:23:21.713Z,7468.00
2018-02-21T11:24:21.713Z,8092.00
2018-02-21T11:25:21.694Z,8468.00
2018-02-21T11:26:21.674Z,8940.00
2018-02-21T11:27:21.651Z,7252.00
2018-02-21T11:28:21.666Z,7028.00
2018-02-21T11:29:21.628Z,7288.00
2018-02-21T11:30:21.632Z,8896.00
2018-02-21T11:31:21.673Z,8712.00
2018-02-21T11:32:21.590Z,8296.00
2018-02-21T11:33:21.562Z,9404.00
2018-02-21T11:34:21.554Z,8788.00
2018-02-21T11:35:21.522Z,8236.00
2018-02-21T11:36:21.508Z,9632.00
2018-02-21T11:37:21.514Z,9572.00
2018-02-21T11:38:21.492Z,10396.00
2018-02-21T11:39:21.465Z,10756.00
2018-02-21T11:40:21.506Z,10572.00
2018-02-21T11:41:21.439Z,10768.00
2018-02-21T11:42:21.418Z,11220.00
2018-02-21T11:43:21.408Z,10792.00
2018-02-21T11:44:21.394Z,10692.00
2018-02-21T11:45:21.380Z,11168.00
2018-02-21T11:46:21.402Z,14332.00
2018-02-21T11:47:21.409Z,15904.00
2018-02-21T11:48:21.340Z,15072.00
2018-02-21T11:49:21.325Z,14352.00
2018-02-21T11:50:21.292Z,12572.00
2018-02-21T11:51:21.282Z,12900.00
2018-02-21T11:52:21.258Z,15136.00
2018-02-21T11:53:21.309Z,12856.00
2018-02-21T11:54:21.227Z,12576.00
2018-02-21T11:55:21.228Z,17664.00
2018-02-21T11:56:21.207Z,15936.00
2018-02-21T11:57:21.198Z,14020.00
2018-02-21T11:58:21.185Z,15552.00
2018-02-21T11:59:21.178Z,16224.00
2018-02-21T12:00:21.205Z,15424.00
2018-02-21T12:01:21.143Z,13888.00
2018-02-21T12:02:21.108Z,14784.00
2018-02-21T12:03:21.132Z,19904.00
2018-02-21T12:04:21.094Z,19520.00
2018-02-21T12:05:21.085Z,26304.00
2018-02-21T12:06:21.069Z,21664.00
2018-02-21T12:07:21.080Z,23104.00
2018-02-21T12:08:21.052Z,31488.00
2018-02-21T12:09:21.023Z,31104.00
2018-02-21T12:10:21.027Z,32160.00
2018-02-21T12:11:21.075Z,33152.00
2018-02-21T12:12:20.990Z,34432.00
2018-02-21T12:13:20.978Z,32192.00
2018-02-21T12:14:20.945Z,27392.00
2018-02-21T12:15:20.934Z,27776.00
2018-02-21T12:16:20.930Z,22624.00
2018-02-21T12:17:20.916Z,15136.00
2018-02-21T12:18:20.902Z,15008.00
2018-02-21T12:19:20.894Z,14912.00
2018-02-21T12:20:20.877Z,14688.00
2018-02-21T12:21:20.922Z,13816.00
2018-02-21T12:22:20.852Z,13200.00
2018-02-21T12:23:20.832Z,12676.00
2018-02-21T12:24:20.832Z,12876.00
2018-02-21T12:25:20.819Z,13284.00
2018-02-21T12:26:20.789Z,12116.00
2018-02-21T12:27:20.814Z,11924.00
2018-02-21T12:28:20.771Z,12608.00
2018-02-21T12:29:20.769Z,13036.00
2018-02-21T12:30:20.753Z,13560.00
2018-02-21T12:31:20.757Z,13476.00
2018-02-21T12:32:20.725Z,13244.00
2018-02-21T12:33:20.711Z,13616.00
2018-02-21T12:34:20.756Z,12312.00
2018-02-21T12:35:20.679Z,10908.00
2018-02-21T12:36:20.681Z,11408.00
2018-02-21T12:37:20.654Z,11796.00
2018-02-21T12:38:20.642Z,11964.00
2018-02-21T12:39:20.658Z,11400.00
2018-02-21T12:40:20.645Z,12548.00
2018-02-21T12:41:20.680Z,13312.00
2018-02-21T12:42:20.615Z,14472.00
2018-02-21T12:43:20.577Z,14484.00
2018-02-21T12:44:20.578Z,13548.00
2018-02-21T12:45:20.560Z,13368.00
2018-02-21T12:46:20.547Z,13864.00
2018-02-21T12:47:20.590Z,15200.00
2018-02-21T12:48:20.527Z,14976.00
2018-02-21T12:49:20.545Z,15200.00
2018-02-21T12:50:20.496Z,15648.00
2018-02-21T12:51:20.486Z,12676.00
2018-02-21T12:52:20.481Z,10396.00
2018-02-21T12:53:20.489Z,10728.00
2018-02-21T12:54:20.450Z,13036.00
2018-02-21T12:55:20.464Z,14624.00
2018-02-21T12:56:20.440Z,16512.00
2018-02-21T12:57:20.408Z,18144.00
2018-02-21T12:58:21.045Z,19456.00
2018-02-21T12:59:20.391Z,22272.00
2018-02-21T13:00:20.386Z,22144.00
2018-02-21T13:01:20.360Z,18496.00
2018-02-21T13:02:20.360Z,15488.00
2018-02-21T13:03:21.019Z,12912.00
2018-02-21T13:04:20.327Z,12364.00
2018-02-21T13:05:20.323Z,13280.00
2018-02-21T13:06:20.311Z,14480.00
2018-02-21T13:07:20.299Z,15776.00
2018-02-21T13:08:20.285Z,17280.00
2018-02-21T13:09:20.546Z,18144.00
2018-02-21T13:10:20.253Z,18400.00
2018-02-21T13:11:20.261Z,16480.00
2018-02-21T13:12:20.315Z,14120.00
2018-02-21T13:13:20.213Z,12304.00
2018-02-21T13:14:20.208Z,12368.00
2018-02-21T13:15:20.207Z,11820.00
2018-02-21T13:16:20.208Z,11928.00
2018-02-21T13:17:20.189Z,12584.00
2018-02-21T13:18:20.223Z,13216.00
2018-02-21T13:19:20.174Z,13140.00
2018-02-21T13:20:20.146Z,13924.00
2018-02-21T13:21:20.195Z,13908.00
2018-02-21T13:22:20.135Z,13588.00
2018-02-21T13:23:20.104Z,13780.00
2018-02-21T13:24:20.395Z,13532.00
2018-02-21T13:25:20.094Z,12912.00
2018-02-21T13:26:20.078Z,11916.00
2018-02-21T13:27:20.058Z,11404.00
2018-02-21T13:28:20.109Z,11276.00
2018-02-21T13:29:20.027Z,12340.00
2018-02-21T13:30:20.019Z,12652.00
2018-02-21T13:31:20.000Z,13448.00
2018-02-21T13:32:19.995Z,14044.00
2018-02-21T13:33:19.987Z,12668.00
2018-02-21T13:34:20.022Z,12948.00
2018-02-21T13:35:19.949Z,13896.00
2018-02-21T13:36:19.937Z,13948.00
2018-02-21T13:37:19.929Z,11824.00
2018-02-21T13:38:20.547Z,11844.00
2018-02-21T13:39:19.906Z,11648.00
2018-02-21T13:40:19.892Z,12044.00
2018-02-21T13:41:19.945Z,12560.00
2018-02-21T13:42:19.869Z,12924.00
2018-02-21T13:43:19.859Z,12808.00
2018-02-21T13:44:19.854Z,13136.00
2018-02-21T13:45:19.827Z,13512.00
2018-02-21T13:46:19.820Z,13708.00
2018-02-21T13:47:19.830Z,14120.00
2018-02-21T13:48:19.793Z,15424.00
2018-02-21T13:49:19.776Z,15552.00
2018-02-21T13:50:19.762Z,15488.00
2018-02-21T13:51:19.754Z,15296.00
2018-02-21T13:52:19.786Z,15584.00
2018-02-21T13:53:19.732Z,15904.00
2018-02-21T13:54:19.765Z,15808.00
2018-02-21T13:55:19.737Z,15008.00
2018-02-21T13:56:19.693Z,14912.00
2018-02-21T13:57:19.670Z,14128.00
2018-02-21T13:58:20.546Z,13660.00
2018-02-21T13:59:19.687Z,13312.00
2018-02-21T14:00:19.642Z,13080.00
2018-02-21T14:01:19.623Z,12876.00
2018-02-21T14:02:19.610Z,12780.00
2018-02-21T14:03:19.679Z,12724.00
2018-02-21T14:04:19.589Z,12676.00
2018-02-21T14:05:19.584Z,12616.00
2018-02-21T14:06:19.556Z,12420.00
2018-02-21T14:07:19.552Z,12348.00
2018-02-21T14:08:19.531Z,12360.00
2018-02-21T14:09:19.590Z,12208.00
2018-02-21T14:10:19.516Z,12344.00
2018-02-21T14:11:19.497Z,11952.00
2018-02-21T14:12:19.486Z,11684.00
2018-02-21T14:13:19.478Z,11552.00
2018-02-21T14:14:19.461Z,11460.00
2018-02-21T14:15:19.452Z,11252.00
2018-02-21T14:16:19.431Z,11188.00
2018-02-21T14:17:19.418Z,11060.00
2018-02-21T14:18:19.400Z,10968.00
2018-02-21T14:19:19.384Z,10844.00
2018-02-21T14:20:19.446Z,10776.00
2018-02-21T14:21:19.367Z,10696.00
2018-02-21T14:22:19.399Z,10584.00
2018-02-21T14:23:19.349Z,10548.00
2018-02-21T14:24:19.328Z,10512.00
2018-02-21T14:25:19.309Z,10432.00
2018-02-21T14:26:19.362Z,10380.00
2018-02-21T14:27:19.290Z,10272.00
2018-02-21T14:28:19.277Z,10088.00
2018-02-21T14:29:19.267Z,9852.00
2018-02-21T14:30:19.256Z,9648.00
2018-02-21T14:31:19.239Z,9568.00
2018-02-21T14:32:19.220Z,9432.00
2018-02-21T14:33:19.193Z,9200.00
2018-02-21T14:34:19.189Z,8928.00
2018-02-21T14:35:19.180Z,8524.00
2018-02-21T14:36:19.174Z,8184.00
2018-02-21T14:37:19.193Z,8040.00
2018-02-21T14:38:19.164Z,7908.00
2018-02-21T14:39:19.124Z,7880.00
2018-02-21T14:40:19.099Z,7952.00
2018-02-21T14:41:19.083Z,7896.00
2018-02-21T14:42:19.077Z,7724.00
2018-02-21T14:43:19.060Z,7652.00
2018-02-21T14:44:19.053Z,7588.00
2018-02-21T14:45:19.086Z,7492.00
2018-02-21T14:46:19.018Z,7236.00
2018-02-21T14:47:19.002Z,7032.00
2018-02-21T14:48:18.993Z,6832.00
2018-02-21T14:49:18.971Z,6700.00
2018-02-21T14:50:18.970Z,6604.00
2018-02-21T14:51:19.019Z,6508.00
2018-02-21T14:52:18.939Z,6376.00
2018-02-21T14:53:18.909Z,6308.00
2018-02-21T14:54:18.921Z,6388.00
2018-02-21T14:55:18.880Z,6384.00
2018-02-21T14:56:18.868Z,6352.00
2018-02-21T14:57:18.869Z,6420.00
2018-02-21T14:58:18.851Z,6540.00
2018-02-21T14:59:18.837Z,6656.00
2018-02-21T15:00:18.802Z,6628.00
2018-02-21T15:01:18.819Z,6596.00
2018-02-21T15:02:18.812Z,6604.00
2018-02-21T15:03:18.815Z,6552.00
2018-02-21T15:04:18.758Z,6328.00
2018-02-21T15:05:18.747Z,5984.00
2018-02-21T15:06:18.731Z,5652.00
2018-02-21T15:07:18.703Z,5436.00
2018-02-21T15:08:18.703Z,5272.00
2018-02-21T15:09:18.691Z,5072.00
2018-02-21T15:10:18.665Z,4940.00
2018-02-21T15:11:18.648Z,4860.00
2018-02-21T15:12:18.643Z,4752.00
2018-02-21T15:13:18.619Z,4704.00
2018-02-21T15:14:19.090Z,4660.00
2018-02-21T15:15:18.594Z,4656.00
2018-02-21T15:16:18.579Z,4608.00
2018-02-21T15:17:18.557Z,4484.00
2018-02-21T15:18:18.542Z,4392.00
2018-02-21T15:19:18.547Z,4344.00
2018-02-21T15:20:18.590Z,4376.00
2018-02-21T15:21:18.495Z,4448.00
2018-02-21T15:22:18.499Z,4584.00
2018-02-21T15:23:18.465Z,4676.00
2018-02-21T15:24:18.464Z,4732.00
2018-02-21T15:25:18.436Z,4732.00
2018-02-21T15:26:18.431Z,4720.00
2018-02-21T15:27:18.405Z,4660.00
2018-02-21T15:28:18.440Z,4628.00
2018-02-21T15:29:18.374Z,4628.00
2018-02-21T15:30:18.410Z,4744.00
2018-02-21T15:31:18.352Z,4708.00
2018-02-21T15:32:18.336Z,4652.00
2018-02-21T15:33:18.323Z,4600.00
2018-02-21T15:34:18.301Z,4560.00
2018-02-21T15:35:18.338Z,4488.00
2018-02-21T15:36:18.264Z,4404.00
2018-02-21T15:37:18.239Z,4348.00
2018-02-21T15:38:18.232Z,4288.00
2018-02-21T15:39:18.285Z,4212.00
2018-02-21T15:40:18.206Z,4152.00
2018-02-21T15:41:18.188Z,4080.00
2018-02-21T15:42:18.180Z,4004.00
2018-02-21T15:43:18.152Z,3932.00
2018-02-21T15:44:18.152Z,3840.00
2018-02-21T15:45:18.226Z,3752.00
2018-02-21T15:46:18.124Z,3704.00
2018-02-21T15:47:18.093Z,3644.00
2018-02-21T15:48:18.085Z,3520.00
2018-02-21T15:49:18.060Z,3424.00
2018-02-21T15:50:18.046Z,3360.00
2018-02-21T15:51:18.052Z,3336.00
2018-02-21T15:52:18.014Z,3296.00
2018-02-21T15:53:17.993Z,3240.00
2018-02-21T15:54:17.993Z,3168.00
2018-02-21T15:55:17.962Z,3108.00
2018-02-21T15:56:17.981Z,3052.00
2018-02-21T15:57:17.996Z,2960.00
2018-02-21T15:58:17.919Z,2852.00
2018-02-21T15:59:17.899Z,2772.00
2018-02-21T16:00:17.880Z,2684.00
2018-02-21T16:01:17.867Z,2624.00
2018-02-21T16:02:17.839Z,2560.00
2018-02-21T16:03:17.834Z,2492.00
2018-02-21T16:04:17.809Z,2420.00
2018-02-21T16:05:17.794Z,2356.00
2018-02-21T16:06:17.796Z,2296.00
2018-02-21T16:07:17.761Z,2236.00
2018-02-21T16:08:17.786Z,2176.00
2018-02-21T16:09:17.735Z,2128.00
2018-02-21T16:10:17.721Z,2060.00
2018-02-21T16:11:17.695Z,1988.00
2018-02-21T16:12:17.683Z,1924.00
2018-02-21T16:13:17.679Z,1864.00
2018-02-21T16:14:17.666Z,1820.00
2018-02-21T16:15:17.643Z,1776.00
2018-02-21T16:16:17.685Z,1724.00
2018-02-21T16:17:17.593Z,1660.00
2018-02-21T16:18:17.587Z,1600.00
2018-02-21T16:19:17.575Z,1544.00
2018-02-21T16:20:17.567Z,1492.00
2018-02-21T16:21:17.585Z,1432.00
2018-02-21T16:22:17.552Z,1376.00
2018-02-21T16:23:17.499Z,1320.00
2018-02-21T16:24:17.555Z,1260.00
2018-02-21T16:25:17.458Z,1200.00
2018-02-21T16:26:17.450Z,1136.00
2018-02-21T16:27:17.437Z,1072.00
2018-02-21T16:28:17.416Z,1016.00
2018-02-21T16:29:17.404Z,956.00
2018-02-21T16:30:17.383Z,900.00
2018-02-21T16:31:17.367Z,844.00
2018-02-21T16:32:17.347Z,792.00
2018-02-21T16:33:17.337Z,736.00
2018-02-21T16:34:17.365Z,692.00
2018-02-21T16:35:17.309Z,644.00
2018-02-21T16:36:17.283Z,600.00
2018-02-21T16:37:17.269Z,560.00
2018-02-21T16:38:17.239Z,528.00
2018-02-21T16:39:17.232Z,492.00
2018-02-21T16:40:17.233Z,464.00
2018-02-21T16:41:17.199Z,436.00
2018-02-21T16:42:17.218Z,416.00
2018-02-21T16:43:17.165Z,392.00
2018-02-21T16:44:17.135Z,372.00
2018-02-21T16:45:17.198Z,348.00
2018-02-21T16:46:17.110Z,324.00
2018-02-21T16:47:17.091Z,304.00
2018-02-21T16:48:17.072Z,284.00
2018-02-21T16:49:17.080Z,260.00
2018-02-21T16:50:17.034Z,240.00
2018-02-21T16:51:17.071Z,224.00
2018-02-21T16:52:17.022Z,204.00
2018-02-21T16:53:17.008Z,184.00
2018-02-21T16:54:16.985Z,168.00
2018-02-21T16:55:16.966Z,152.00
2018-02-21T16:56:16.971Z,140.00
2018-02-21T16:57:16.926Z,124.00
2018-02-21T16:58:16.906Z,112.00
2018-02-21T16:59:16.881Z,100.00
2018-02-21T17:00:16.866Z,88.00
2018-02-21T17:01:16.911Z,80.00
2018-02-21T17:02:16.884Z,72.00
2018-02-21T17:03:16.828Z,60.00
2018-02-21T17:04:16.812Z,52.00
2018-02-21T17:05:16.795Z,48.00
2018-02-21T17:06:16.759Z,40.00
2018-02-21T17:07:16.742Z,36.00
2018-02-21T17:08:16.784Z,32.00
2018-02-21T17:09:16.716Z,24.00
2018-02-21T17:10:16.698Z,20.00
2018-02-21T17:11:16.666Z,20.00
2018-02-21T17:12:16.667Z,16.00
2018-02-21T17:13:16.690Z,12.00
2018-02-21T17:14:16.678Z,8.00
2018-02-21T17:15:16.599Z,8.00
2018-02-21T17:16:16.575Z,8.00
2018-02-21T17:17:16.560Z,8.00
2018-02-21T17:18:16.555Z,8.00
2018-02-21T17:19:16.544Z,4.00
2018-02-21T17:20:16.550Z,4.00
2018-02-21T17:21:16.490Z,0.00
2018-02-21T17:22:16.475Z,4.00
2018-02-21T17:23:16.475Z,4.00
2018-02-21T17:24:16.444Z,0.00
2018-02-21T17:25:16.482Z,0.00
2018-02-21T17:26:16.404Z,4.00
2018-02-21T17:27:16.389Z,0.00
2018-02-21T17:28:16.371Z,0.00
2018-02-21T17:29:16.339Z,0.00
2018-02-21T17:30:16.327Z,0.00
2018-02-21T17:31:16.376Z,0.00
2018-02-21T17:32:16.290Z,0.00
2018-02-21T17:33:16.275Z,0.00
2018-02-21T17:34:16.258Z,0.00
2018-02-21T17:35:16.255Z,0.00
2018-02-21T17:36:16.230Z,0.00
2018-02-21T17:37:16.216Z,0.00
2018-02-21T17:38:16.181Z,0.00
2018-02-21T17:39:16.163Z,0.00
2018-02-21T17:40:16.149Z,0.00
2018-02-21T17:41:16.126Z,0.00
2018-02-21T17:42:16.155Z,0.00
2018-02-21T17:43:16.086Z,0.00
2018-02-21T17:44:16.085Z,0.00
2018-02-21T17:45:16.069Z,0.00
2018-02-21T17:46:16.033Z,0.00
2018-02-21T17:47:16.050Z,0.00
2018-02-21T17:48:16.017Z,0.00
2018-02-21T17:49:16.007Z,0.00
2018-02-21T17:50:15.960Z,0.00
2018-02-21T17:51:15.949Z,0.00
2018-02-21T17:52:15.925Z,0.00
2018-02-21T17:53:15.925Z,0.00
2018-02-21T17:54:15.957Z,0.00
2018-02-21T17:55:15.888Z,0.00
2018-02-21T17:56:15.862Z,0.00
2018-02-21T17:57:15.836Z,0.00
2018-02-21T17:58:15.822Z,0.00
2018-02-21T17:59:15.802Z,0.00
2018-02-21T18:00:15.832Z,0.00
2018-02-21T18:01:15.767Z,0.00
2018-02-21T18:02:15.763Z,0.00
2018-02-21T18:03:15.767Z,0.00
2018-02-21T18:04:15.708Z,0.00
2018-02-21T18:05:15.697Z,0.00
2018-02-21T18:06:15.739Z,0.00
2018-02-21T18:07:15.651Z,0.00
2018-02-21T18:08:15.627Z,0.00
2018-02-21T18:09:15.622Z,0.00
2018-02-21T18:10:15.603Z,0.00
2018-02-21T18:11:15.585Z,0.00
2018-02-21T18:12:15.608Z,0.00
2018-02-21T18:13:15.548Z,0.00
2018-02-21T18:14:15.524Z,0.00
2018-02-21T18:15:15.504Z,0.00
2018-02-21T18:16:15.502Z,0.00
2018-02-21T18:17:15.483Z,0.00
2018-02-21T18:18:15.485Z,0.00
2018-02-21T18:19:15.441Z,0.00
2018-02-21T18:20:15.478Z,0.00
2018-02-21T18:21:15.398Z,0.00
2018-02-21T18:22:15.389Z,0.00
2018-02-21T18:23:15.360Z,0.00
2018-02-21T18:24:15.335Z,0.00
2018-02-21T18:25:15.327Z,0.00
2018-02-21T18:26:15.321Z,0.00
2018-02-21T18:27:15.337Z,0.00
2018-02-21T18:28:15.275Z,0.00
2018-02-21T18:29:15.254Z,0.00
2018-02-21T18:30:15.242Z,0.00
2018-02-21T18:31:15.222Z,0.00
2018-02-21T18:32:15.256Z,0.00
2018-02-21T18:33:15.179Z,0.00
2018-02-21T18:34:15.151Z,0.00
2018-02-21T18:35:15.125Z,0.00
2018-02-21T18:36:20.300Z,0.00
2018-02-21T18:37:15.404Z,0.00
2018-02-21T18:38:15.301Z,0.00
2018-02-21T18:39:49.164Z,0.00
2018-02-21T18:40:15.087Z,0.00
2018-02-21T18:41:16.157Z,0.00
2018-02-21T18:42:18.078Z,0.00
